Time;durP1;ratioP1;P1;durP2;ratioP2;P2;SDS_P1;SDS_P2;PMS_P1;PMS_P2;Temp;Humidity;BMP_temperature;BMP_pressure;BME280_temperature;BME280_humidity;BME280_pressure;Samples;Min_cycle;Max_cycle;Signal;HPM_P1;HPM_P2
2023/04/14 00:01:39;;;;;;;14.35;2.85;;;;;;;;;;5009462;28;20030;-75
2023/04/14 00:04:05;;;;;;;12.30;2.17;;;;;;;;;;4999199;28;20070;-78
2023/04/14 00:06:31;;;;;;;23.40;4.10;;;;;;;;;;5008614;28;20042;-78
2023/04/14 00:08:57;;;;;;;10.60;2.90;;;;;;;;;;5015443;28;20063;-78
2023/04/14 00:11:22;;;;;;;0.20;0.20;;;;;;;;;;5015562;28;20038;-76
2023/04/14 00:13:48;;;;;;;4.47;1.27;;;;;;;;;;5015621;28;20029;-79
2023/04/14 00:16:13;;;;;;;0.10;0.10;;;;;;;;;;4981703;28;20543;-76
2023/04/14 00:18:39;;;;;;;0.17;0.17;;;;;;;;;;5015491;28;20393;-76
2023/04/14 00:21:04;;;;;;;7.82;1.65;;;;;;;;;;5017069;28;20069;-76
2023/04/14 00:23:29;;;;;;;0.10;0.10;;;;;;;;;;5019242;28;20026;-76
2023/04/14 00:25:55;;;;;;;0.10;0.10;;;;;;;;;;5018693;28;20049;-78
2023/04/14 00:28:20;;;;;;;0.10;0.10;;;;;;;;;;5017979;28;20026;-78
2023/04/14 00:30:46;;;;;;;0.10;0.10;;;;;;;;;;4998420;28;20046;-77
2023/04/14 00:33:11;;;;;;;0.10;0.10;;;;;;;;;;4998282;28;20068;-77
2023/04/14 00:35:36;;;;;;;2.38;2.28;;;;;;;;;;5015362;28;20129;-77
2023/04/14 00:38:02;;;;;;;0.10;0.10;;;;;;;;;;4997633;28;20032;-76
2023/04/14 00:40:28;;;;;;;0.30;0.30;;;;;;;;;;4997767;28;20038;-76
2023/04/14 00:42:54;;;;;;;0.10;0.10;;;;;;;;;;4997723;28;20041;-76
2023/04/14 00:45:19;;;;;;;0.10;0.10;;;;;;;;;;5015118;28;20041;-77
2023/04/14 00:47:46;;;;;;;0.10;0.10;;;;;;;;;;5014155;28;20030;-76
2023/04/14 00:50:12;;;;;;;0.10;0.10;;;;;;;;;;4997104;28;20041;-80
2023/04/14 00:52:37;;;;;;;0.10;0.10;;;;;;;;;;5014909;28;20153;-81
2023/04/14 00:55:04;;;;;;;0.10;0.10;;;;;;;;;;4997317;28;20068;-77
2023/04/14 00:57:30;;;;;;;0.10;0.10;;;;;;;;;;5015152;28;20030;-77
2023/04/14 00:59:59;;;;;;;0.43;0.43;;;;;;;;;;4996691;28;20045;-77
2023/04/14 01:02:25;;;;;;;0.10;0.10;;;;;;;;;;4997033;28;20030;-75
2023/04/14 01:04:50;;;;;;;0.10;0.10;;;;;;;;;;4997171;28;20044;-80
2023/04/14 01:07:17;;;;;;;0.10;0.10;;;;;;;;;;4997449;28;20389;-77
2023/04/14 01:09:42;;;;;;;0.10;0.10;;;;;;;;;;4997007;28;20513;-76
2023/04/14 01:12:11;;;;;;;0.10;0.10;;;;;;;;;;4997071;28;20057;-82
2023/04/14 01:14:40;;;;;;;3.22;0.80;;;;;;;;;;4997041;28;20080;-79
2023/04/14 01:17:06;;;;;;;;;;;;;;;;;;5014878;28;20048;-80
2023/04/14 01:19:31;;;;;;;4.53;1.07;;;;;;;;;;4996857;28;19913;-83
2023/04/14 01:22:00;;;;;;;1.23;0.32;;;;;;;;;;4996753;28;20033;-78
2023/04/14 01:24:29;;;;;;;0.47;0.32;;;;;;;;;;4996959;28;20034;-78
2023/04/14 01:27:03;;;;;;;1.08;0.95;;;;;;;;;;5014188;28;20132;-82
2023/04/14 01:29:47;;;;;;;1.05;0.63;;;;;;;;;;4996828;28;20080;-79
2023/04/14 01:32:17;;;;;;;2.85;0.80;;;;;;;;;;4996722;28;20037;-75
2023/04/14 01:34:42;;;;;;;;;;;;;;;;;;5012768;28;20494;-76
2023/04/14 01:37:12;;;;;;;5.63;0.77;;;;;;;;;;5011770;28;19928;-79
2023/04/14 01:39:40;;;;;;;1.02;0.55;;;;;;;;;;4976951;28;20497;-78
2023/04/14 01:42:07;;;;;;;5.78;1.02;;;;;;;;;;4976882;28;20057;-79
2023/04/14 01:44:35;;;;;;;0.10;0.10;;;;;;;;;;4976956;28;20394;-77
2023/04/14 01:47:04;;;;;;;0.10;0.10;;;;;;;;;;4985512;28;20041;-78
2023/04/14 01:49:31;;;;;;;0.20;0.20;;;;;;;;;;5013830;28;20034;-78
2023/04/14 01:51:57;;;;;;;0.32;0.32;;;;;;;;;;5013891;28;20032;-77
2023/04/14 01:54:23;;;;;;;0.10;0.10;;;;;;;;;;4995694;28;20042;-79
2023/04/14 01:56:50;;;;;;;0.35;0.35;;;;;;;;;;4996551;28;20504;-79
2023/04/14 01:59:16;;;;;;;1.10;1.00;;;;;;;;;;4979936;28;20044;-80
2023/04/14 02:01:43;;;;;;;14.45;1.50;;;;;;;;;;4996095;28;20025;-80
2023/04/14 02:04:08;;;;;;;0.10;0.10;;;;;;;;;;4996130;28;20033;-80
2023/04/14 02:06:35;;;;;;;0.10;0.10;;;;;;;;;;4995383;28;20046;-81
2023/04/14 02:09:04;;;;;;;0.28;0.28;;;;;;;;;;4995912;28;20033;-81
2023/04/14 02:11:30;;;;;;;0.50;0.50;;;;;;;;;;4994804;28;20034;-81
2023/04/14 02:13:58;;;;;;;0.10;0.10;;;;;;;;;;5013720;28;20113;-81
2023/04/14 02:16:23;;;;;;;0.10;0.10;;;;;;;;;;4979750;28;20481;-82
2023/04/14 02:18:49;;;;;;;0.10;0.10;;;;;;;;;;5013910;28;20033;-82
2023/04/14 02:21:16;;;;;;;0.10;0.10;;;;;;;;;;5012519;28;20030;-82
2023/04/14 02:23:41;;;;;;;0.10;0.10;;;;;;;;;;5009951;28;20033;-82
2023/04/14 02:26:12;;;;;;;0.10;0.10;;;;;;;;;;5013621;28;20572;-82
2023/04/14 02:28:41;;;;;;;0.10;0.10;;;;;;;;;;4995955;28;20037;-78
2023/04/14 02:31:08;;;;;;;0.10;0.10;;;;;;;;;;5013247;28;20049;-79
2023/04/14 02:33:36;;;;;;;0.98;0.85;;;;;;;;;;5012368;28;20046;-80
2023/04/14 02:36:03;;;;;;;;;;;;;;;;;;4991415;28;20124;-80
2023/04/14 02:38:41;;;;;;;0.10;0.10;;;;;;;;;;5017819;28;19991;-79
2023/04/14 02:41:11;;;;;;;0.10;0.10;;;;;;;;;;5016789;28;20385;-78
2023/04/14 02:43:46;;;;;;;0.10;0.10;;;;;;;;;;4997568;28;20038;-81
2023/04/14 02:46:14;;;;;;;0.10;0.10;;;;;;;;;;4978837;28;20034;-79
2023/04/14 02:48:41;;;;;;;0.10;0.10;;;;;;;;;;5016417;28;20169;-80
2023/04/14 02:51:08;;;;;;;0.55;0.55;;;;;;;;;;4999720;28;20087;-81
2023/04/14 02:53:34;;;;;;;0.10;0.10;;;;;;;;;;4999685;28;20049;-81
2023/04/14 02:56:15;;;;;;;0.10;0.10;;;;;;;;;;5001646;28;20408;-81
2023/04/14 02:58:43;;;;;;;0.10;0.10;;;;;;;;;;4999679;28;20050;-81
2023/04/14 03:01:09;;;;;;;0.10;0.10;;;;;;;;;;4999612;28;20046;-81
2023/04/14 03:03:36;;;;;;;0.10;0.10;;;;;;;;;;4993299;28;20494;-85
2023/04/14 03:06:05;;;;;;;0.10;0.10;;;;;;;;;;4995738;28;20401;-79
2023/04/14 03:08:31;;;;;;;0.10;0.10;;;;;;;;;;5013062;28;20073;-79
2023/04/14 03:10:58;;;;;;;0.10;0.10;;;;;;;;;;4995332;28;20026;-80
2023/04/14 03:13:27;;;;;;;0.20;0.20;;;;;;;;;;4995803;28;20061;-80
2023/04/14 03:15:52;;;;;;;0.10;0.10;;;;;;;;;;4995589;28;20091;-80
2023/04/14 03:18:20;;;;;;;0.10;0.10;;;;;;;;;;4994069;28;20036;-81
2023/04/14 03:20:49;;;;;;;0.10;0.10;;;;;;;;;;4972004;28;20456;-77
2023/04/14 03:23:17;;;;;;;0.10;0.10;;;;;;;;;;4994055;28;20980;-76
2023/04/14 03:25:49;;;;;;;0.00;0.00;;;;;;;;;;4980074;28;20044;-80
2023/04/14 03:28:22;;;;;;;0.10;0.10;;;;;;;;;;4976589;28;20080;-80
2023/04/14 03:30:50;;;;;;;0.10;0.10;;;;;;;;;;5012881;28;20188;-81
2023/04/14 03:33:19;;;;;;;1.23;1.17;;;;;;;;;;4995087;28;20425;-80
2023/04/14 03:35:45;;;;;;;0.10;0.10;;;;;;;;;;4995571;28;20478;-80
2023/04/14 03:38:13;;;;;;;0.10;0.10;;;;;;;;;;5012872;28;20014;-79
2023/04/14 03:40:41;;;;;;;0.10;0.10;;;;;;;;;;4994973;28;20093;-80
2023/04/14 03:43:08;;;;;;;0.13;0.13;;;;;;;;;;4978509;28;20038;-80
2023/04/14 03:45:37;;;;;;;0.10;0.10;;;;;;;;;;4978958;28;20113;-79
2023/04/14 03:48:04;;;;;;;0.15;0.15;;;;;;;;;;4993415;28;20096;-80
2023/04/14 03:50:39;;;;;;;0.10;0.10;;;;;;;;;;4979540;28;20034;-79
2023/04/14 03:53:07;;;;;;;0.10;0.10;;;;;;;;;;4977826;28;20022;-80
2023/04/14 03:55:34;;;;;;;0.10;0.10;;;;;;;;;;5012480;28;20030;-79
2023/04/14 03:58:01;;;;;;;0.20;0.20;;;;;;;;;;4993572;28;20436;-83
2023/04/14 04:00:28;;;;;;;0.10;0.10;;;;;;;;;;4992265;28;20556;-83
2023/04/14 04:02:55;;;;;;;0.30;0.30;;;;;;;;;;4994292;28;20029;-82
2023/04/14 04:05:21;;;;;;;2.78;2.58;;;;;;;;;;4993116;28;20049;-82
2023/04/14 04:07:49;;;;;;;0.10;0.10;;;;;;;;;;4994001;28;20038;-82
2023/04/14 04:10:15;;;;;;;0.10;0.10;;;;;;;;;;4991739;28;20116;-82
2023/04/14 04:12:41;;;;;;;0.10;0.10;;;;;;;;;;4992517;28;20033;-83
2023/04/14 04:15:07;;;;;;;0.10;0.10;;;;;;;;;;4978938;28;20065;-83
2023/04/14 04:17:33;;;;;;;0.10;0.10;;;;;;;;;;4974371;28;20038;-79
2023/04/14 04:20:05;;;;;;;0.10;0.10;;;;;;;;;;4974379;28;20125;-80
2023/04/14 04:22:32;;;;;;;0.10;0.10;;;;;;;;;;4974522;28;20088;-80
2023/04/14 04:24:58;;;;;;;0.10;0.10;;;;;;;;;;4988918;28;20037;-80
2023/04/14 04:27:28;;;;;;;0.10;0.10;;;;;;;;;;4993880;28;20046;-81
2023/04/14 04:30:06;;;;;;;0.10;0.10;;;;;;;;;;4992925;28;20069;-81
2023/04/14 04:32:32;;;;;;;0.10;0.10;;;;;;;;;;4993253;28;20056;-83
2023/04/14 04:34:57;;;;;;;0.10;0.10;;;;;;;;;;4992127;28;20026;-82
2023/04/14 04:37:27;;;;;;;0.10;0.10;;;;;;;;;;4992494;28;20124;-80
2023/04/14 04:39:52;;;;;;;;;;;;;;;;;;4993577;28;20037;-81
2023/04/14 04:42:18;;;;;;;0.10;0.10;;;;;;;;;;4993743;28;19921;-81
2023/04/14 04:44:44;;;;;;;0.10;0.10;;;;;;;;;;4992464;28;20284;-80
2023/04/14 04:47:11;;;;;;;0.10;0.10;;;;;;;;;;5008336;28;20038;-79
2023/04/14 04:49:36;;;;;;;0.10;0.10;;;;;;;;;;4992842;28;20037;-77
2023/04/14 04:52:02;;;;;;;0.10;0.10;;;;;;;;;;4993055;28;20038;-78
2023/04/14 04:54:27;;;;;;;0.10;0.10;;;;;;;;;;4996056;28;20511;-77
2023/04/14 04:56:53;;;;;;;0.10;0.10;;;;;;;;;;4998392;28;20099;-76
2023/04/14 04:59:18;;;;;;;0.30;0.20;;;;;;;;;;5012630;28;20030;-77
2023/04/14 05:01:43;;;;;;;0.05;0.05;;;;;;;;;;5003050;28;20113;-83
2023/04/14 05:04:09;;;;;;;0.10;0.10;;;;;;;;;;5005096;28;20037;-76
2023/04/14 05:06:36;;;;;;;0.10;0.10;;;;;;;;;;5009157;28;20097;-77
2023/04/14 05:09:03;;;;;;;0.17;0.17;;;;;;;;;;5008027;28;20104;-78
2023/04/14 05:11:28;;;;;;;0.10;0.10;;;;;;;;;;5008778;28;20359;-77
2023/04/14 05:13:53;;;;;;;0.10;0.10;;;;;;;;;;5007414;28;20041;-77
2023/04/14 05:16:19;;;;;;;0.10;0.10;;;;;;;;;;5010448;28;20037;-79
2023/04/14 05:18:44;;;;;;;0.10;0.10;;;;;;;;;;4991396;28;20065;-81
2023/04/14 05:21:14;;;;;;;2.63;0.22;;;;;;;;;;5009139;28;20108;-81
2023/04/14 05:23:40;;;;;;;;;;;;;;;;;;5010724;28;20056;-80
2023/04/14 05:26:06;;;;;;;0.10;0.10;;;;;;;;;;5010110;28;20078;-79
2023/04/14 05:28:32;;;;;;;0.10;0.10;;;;;;;;;;5003433;28;20493;-82
2023/04/14 05:30:57;;;;;;;1.25;1.15;;;;;;;;;;5010542;28;20052;-80
2023/04/14 05:33:23;;;;;;;0.10;0.10;;;;;;;;;;5010328;28;20436;-79
2023/04/14 05:35:51;;;;;;;0.20;0.20;;;;;;;;;;4992774;28;20485;-80
2023/04/14 05:38:17;;;;;;;0.10;0.10;;;;;;;;;;5010691;28;20026;-79
2023/04/14 05:40:42;;;;;;;0.20;0.20;;;;;;;;;;4993137;28;20046;-79
2023/04/14 05:43:08;;;;;;;0.10;0.10;;;;;;;;;;5010419;28;20048;-80
2023/04/14 05:45:33;;;;;;;0.10;0.10;;;;;;;;;;5009883;28;20038;-81
2023/04/14 05:47:59;;;;;;;0.10;0.10;;;;;;;;;;5010450;28;20065;-79
2023/04/14 05:50:24;;;;;;;0.20;0.20;;;;;;;;;;5010202;28;20063;-80
2023/04/14 05:52:50;;;;;;;0.10;0.10;;;;;;;;;;5010612;28;20060;-78
2023/04/14 05:55:16;;;;;;;0.10;0.10;;;;;;;;;;4992407;28;20042;-78
2023/04/14 05:57:42;;;;;;;0.90;0.90;;;;;;;;;;5010197;28;20055;-76
2023/04/14 06:00:08;;;;;;;0.10;0.10;;;;;;;;;;5009710;28;20037;-82
2023/04/14 06:02:41;;;;;;;0.10;0.10;;;;;;;;;;4992463;28;20033;-78
2023/04/14 06:05:06;;;;;;;0.10;0.10;;;;;;;;;;5010084;28;20397;-79
2023/04/14 06:07:32;;;;;;;0.10;0.10;;;;;;;;;;5010181;28;20031;-80
2023/04/14 06:09:58;;;;;;;0.10;0.10;;;;;;;;;;5010041;28;20049;-80
2023/04/14 06:12:23;;;;;;;0.10;0.10;;;;;;;;;;5009805;28;20034;-77
2023/04/14 06:14:49;;;;;;;0.10;0.10;;;;;;;;;;5009752;28;20470;-77
2023/04/14 06:17:14;;;;;;;1.10;0.52;;;;;;;;;;4992170;28;20481;-78
2023/04/14 06:19:39;;;;;;;0.10;0.10;;;;;;;;;;5010114;28;20092;-78
2023/04/14 06:22:05;;;;;;;0.10;0.10;;;;;;;;;;5009303;28;20038;-77
2023/04/14 06:24:33;;;;;;;1.05;1.05;;;;;;;;;;4992266;28;20599;-77
2023/04/14 06:26:59;;;;;;;0.10;0.10;;;;;;;;;;5009623;28;20061;-78
2023/04/14 06:29:25;;;;;;;0.10;0.10;;;;;;;;;;5009518;28;20049;-79
2023/04/14 06:31:50;;;;;;;0.10;0.10;;;;;;;;;;5009943;28;20096;-77
2023/04/14 06:34:16;;;;;;;0.10;0.10;;;;;;;;;;4991955;28;20439;-76
2023/04/14 06:36:42;;;;;;;0.10;0.10;;;;;;;;;;4988776;28;20040;-80
2023/04/14 06:39:07;;;;;;;0.10;0.10;;;;;;;;;;4997133;28;20471;-80
2023/04/14 06:41:32;;;;;;;0.10;0.10;;;;;;;;;;4990042;28;20518;-76
2023/04/14 06:43:59;;;;;;;0.20;0.20;;;;;;;;;;4972278;28;20445;-76
2023/04/14 06:46:25;;;;;;;0.10;0.10;;;;;;;;;;4972498;28;20038;-80
2023/04/14 06:48:50;;;;;;;0.10;0.10;;;;;;;;;;4990084;28;20034;-78
2023/04/14 06:51:16;;;;;;;0.10;0.10;;;;;;;;;;4989754;28;20038;-80
2023/04/14 06:53:41;;;;;;;0.08;0.08;;;;;;;;;;4989962;28;20510;-77
2023/04/14 06:56:06;;;;;;;4.53;1.05;;;;;;;;;;4989975;28;20398;-82
2023/04/14 06:58:32;;;;;;;2.38;0.68;;;;;;;;;;4989823;28;20065;-79
2023/04/14 07:00:58;;;;;;;0.10;0.10;;;;;;;;;;4972531;28;20873;-77
2023/04/14 07:03:24;;;;;;;7.38;1.65;;;;;;;;;;4989910;28;20022;-80
2023/04/14 07:05:49;;;;;;;4.13;2.03;;;;;;;;;;4989894;28;20038;-80
2023/04/14 07:08:15;;;;;;;8.55;2.08;;;;;;;;;;4994675;28;20037;-78
2023/04/14 07:10:41;;;;;;;3.10;0.70;;;;;;;;;;4994678;28;20360;-78
2023/04/14 07:13:06;;;;;;;0.10;0.10;;;;;;;;;;4993216;28;20034;-76
2023/04/14 07:15:31;;;;;;;0.10;0.10;;;;;;;;;;4993340;28;20355;-78
2023/04/14 07:17:57;;;;;;;0.52;0.40;;;;;;;;;;5000702;28;20026;-83
2023/04/14 07:20:22;;;;;;;0.17;0.17;;;;;;;;;;4989892;28;20441;-76
2023/04/14 07:22:47;;;;;;;0.10;0.10;;;;;;;;;;4990453;28;20215;-79
2023/04/14 07:25:13;;;;;;;0.15;0.15;;;;;;;;;;4989482;28;20081;-83
2023/04/14 07:27:38;;;;;;;1.45;0.20;;;;;;;;;;4992335;28;20436;-77
2023/04/14 07:30:04;;;;;;;0.00;0.00;;;;;;;;;;4994588;28;20101;-77
2023/04/14 07:32:29;;;;;;;0.10;0.10;;;;;;;;;;4990391;28;20395;-78
2023/04/14 07:34:57;;;;;;;0.43;0.43;;;;;;;;;;4992753;28;20129;-77
2023/04/14 07:37:23;;;;;;;3.72;0.45;;;;;;;;;;4986245;28;20532;-72
2023/04/14 07:39:48;;;;;;;5.00;4.57;;;;;;;;;;5013031;28;20071;-72
2023/04/14 07:42:14;;;;;;;2.17;0.95;;;;;;;;;;5008066;28;20114;-73
2023/04/14 07:44:39;;;;;;;0.35;0.35;;;;;;;;;;5012258;28;20044;-73
2023/04/14 07:47:05;;;;;;;0.32;0.20;;;;;;;;;;5006139;28;20370;-74
2023/04/14 07:49:30;;;;;;;0.10;0.10;;;;;;;;;;4993263;28;20039;-73
2023/04/14 07:55:56;;;;;;;0.55;0.30;;;;;;;;;;5008464;28;20141;-74
2023/04/14 07:58:22;;;;;;;0.38;0.30;;;;;;;;;;4991622;28;20044;-73
2023/04/14 08:00:47;;;;;;;0.10;0.10;;;;;;;;;;4991250;28;20038;-74
2023/04/14 08:03:12;;;;;;;0.20;0.20;;;;;;;;;;4990952;28;20038;-74
2023/04/14 08:05:38;;;;;;;0.20;0.20;;;;;;;;;;4991924;28;20485;-74
2023/04/14 08:08:03;;;;;;;4.85;0.88;;;;;;;;;;4996152;28;20049;-74
2023/04/14 08:10:29;;;;;;;0.10;0.10;;;;;;;;;;4998648;28;20093;-73
2023/04/14 08:12:54;;;;;;;0.10;0.10;;;;;;;;;;4992677;28;20031;-74
2023/04/14 08:15:20;;;;;;;1.02;0.47;;;;;;;;;;4992051;28;20038;-72
2023/04/14 08:17:45;;;;;;;0.20;0.20;;;;;;;;;;4974576;28;20422;-73
2023/04/14 08:20:11;;;;;;;0.20;0.20;;;;;;;;;;4991909;28;20074;-73
2023/04/14 08:22:36;;;;;;;5.68;0.95;;;;;;;;;;4991971;28;20038;-74
2023/04/14 08:25:02;;;;;;;5.70;0.63;;;;;;;;;;4991595;28;20030;-74
2023/04/14 08:27:27;;;;;;;1.85;0.75;;;;;;;;;;5005448;28;20462;-73
2023/04/14 08:29:53;;;;;;;6.97;1.67;;;;;;;;;;5007558;28;20042;-74
2023/04/14 08:32:19;;;;;;;5.22;1.13;;;;;;;;;;4986900;28;20127;-74
2023/04/14 08:34:45;;;;;;;0.10;0.10;;;;;;;;;;4997864;28;20403;-73
2023/04/14 08:37:10;;;;;;;3.25;0.95;;;;;;;;;;5011022;28;20026;-73
2023/04/14 08:39:35;;;;;;;7.00;1.30;;;;;;;;;;5011272;28;20045;-73
2023/04/14 08:42:01;;;;;;;1.65;0.57;;;;;;;;;;4993948;28;20041;-74
2023/04/14 08:44:27;;;;;;;0.38;0.30;;;;;;;;;;5010416;28;20083;-75
2023/04/14 08:46:53;;;;;;;0.10;0.10;;;;;;;;;;5009323;28;20046;-74
2023/04/14 08:49:40;;;;;;;3.38;0.40;;;;;;;;;;5008699;28;20045;-74
2023/04/14 08:52:08;;;;;;;0.10;0.10;;;;;;;;;;5008804;28;20034;-74
2023/04/14 08:54:34;;;;;;;0.10;0.10;;;;;;;;;;4991323;28;20073;-74
2023/04/14 08:56:59;;;;;;;2.08;0.63;;;;;;;;;;5008841;28;20038;-74
2023/04/14 08:59:26;;;;;;;3.80;0.77;;;;;;;;;;5007451;28;20033;-74
2023/04/14 09:01:52;;;;;;;5.93;0.75;;;;;;;;;;4989738;28;20053;-74
2023/04/14 09:04:19;;;;;;;2.45;0.75;;;;;;;;;;5008805;28;20034;-74
2023/04/14 09:06:44;;;;;;;5.85;1.02;;;;;;;;;;5008604;28;20041;-74
2023/04/14 09:09:10;;;;;;;3.20;0.65;;;;;;;;;;5008330;28;20132;-71
2023/04/14 09:11:35;;;;;;;3.38;0.30;;;;;;;;;;5009066;28;20053;-74
2023/04/14 09:14:00;;;;;;;0.43;0.10;;;;;;;;;;5010527;28;20393;-74
2023/04/14 09:16:27;;;;;;;5.70;1.42;;;;;;;;;;5010747;28;20038;-74
2023/04/14 09:18:53;;;;;;;4.25;0.98;;;;;;;;;;5010605;28;20038;-74
2023/04/14 09:21:18;;;;;;;4.78;1.38;;;;;;;;;;5010220;28;20037;-74
2023/04/14 09:23:44;;;;;;;1.40;0.50;;;;;;;;;;5011542;28;20363;-74
2023/04/14 09:26:10;;;;;;;2.38;0.70;;;;;;;;;;5010532;28;20064;-74
2023/04/14 09:28:36;;;;;;;7.53;1.10;;;;;;;;;;5010332;28;20076;-74
2023/04/14 09:31:01;;;;;;;0.30;0.22;;;;;;;;;;5010634;28;20050;-74
2023/04/14 09:33:27;;;;;;;3.22;0.32;;;;;;;;;;5010321;28;20046;-74
2023/04/14 09:35:53;;;;;;;0.93;0.50;;;;;;;;;;5010256;28;20057;-74
2023/04/14 09:38:32;;;;;;;0.13;0.13;;;;;;;;;;5010093;28;20037;-73
2023/04/14 09:40:57;;;;;;;0.35;0.20;;;;;;;;;;5010690;28;20112;-74
2023/04/14 09:43:24;;;;;;;0.22;0.22;;;;;;;;;;4992290;28;20124;-74
2023/04/14 09:45:50;;;;;;;0.40;0.25;;;;;;;;;;5009920;28;20367;-74
2023/04/14 09:48:16;;;;;;;0.82;0.28;;;;;;;;;;5010161;28;20033;-73
2023/04/14 09:50:59;;;;;;;2.35;0.17;;;;;;;;;;5010422;28;20065;-74
2023/04/14 09:53:28;;;;;;;0.55;0.20;;;;;;;;;;5010120;28;20041;-74
2023/04/14 09:55:54;;;;;;;2.42;0.32;;;;;;;;;;5009194;28;20377;-74
2023/04/14 09:58:23;;;;;;;0.10;0.10;;;;;;;;;;5009675;28;20034;-73
2023/04/14 10:00:49;;;;;;;2.30;0.50;;;;;;;;;;5009860;28;20026;-73
2023/04/14 10:03:15;;;;;;;2.45;0.73;;;;;;;;;;5009729;28;20060;-74
2023/04/14 10:05:45;;;;;;;0.82;0.38;;;;;;;;;;5009942;28;20136;-73
2023/04/14 10:08:10;;;;;;;1.55;0.45;;;;;;;;;;5010194;28;20045;-74
2023/04/14 10:10:36;;;;;;;3.72;0.47;;;;;;;;;;5009574;28;20026;-74
2023/04/14 10:13:02;;;;;;;0.20;0.20;;;;;;;;;;5009817;28;20049;-74
2023/04/14 10:15:27;;;;;;;1.67;0.50;;;;;;;;;;5009591;28;20041;-74
2023/04/14 10:17:52;;;;;;;0.93;0.38;;;;;;;;;;5010163;28;20462;-73
2023/04/14 10:20:18;;;;;;;4.13;0.70;;;;;;;;;;5009638;28;20045;-74
2023/04/14 10:22:43;;;;;;;2.75;0.30;;;;;;;;;;5009885;28;20041;-74
2023/04/14 10:25:09;;;;;;;3.85;0.60;;;;;;;;;;5009148;28;20119;-74
2023/04/14 10:27:35;;;;;;;0.80;0.40;;;;;;;;;;5009538;28;20038;-74
2023/04/14 10:30:01;;;;;;;3.30;0.40;;;;;;;;;;5009739;28;20437;-74
2023/04/14 10:32:30;;;;;;;3.80;0.63;;;;;;;;;;5009466;28;20034;-74
2023/04/14 10:34:59;;;;;;;1.15;0.40;;;;;;;;;;5009841;28;20425;-74
2023/04/14 10:37:25;;;;;;;0.15;0.15;;;;;;;;;;5009353;28;20469;-74
2023/04/14 10:39:55;;;;;;;5.35;0.90;;;;;;;;;;4991592;28;20080;-74
2023/04/14 10:42:22;;;;;;;5.43;1.35;;;;;;;;;;5009298;28;20121;-74
2023/04/14 10:45:04;;;;;;;2.78;0.70;;;;;;;;;;5009773;28;20100;-74
2023/04/14 10:47:30;;;;;;;1.65;0.40;;;;;;;;;;5009462;28;20429;-74
2023/04/14 10:49:56;;;;;;;1.77;0.80;;;;;;;;;;5009405;28;20030;-74
2023/04/14 10:52:25;;;;;;;0.65;0.30;;;;;;;;;;5009184;28;20500;-74
2023/04/14 10:54:57;;;;;;;1.38;0.63;;;;;;;;;;5009062;28;20030;-74
2023/04/14 10:57:23;;;;;;;2.20;0.40;;;;;;;;;;5009044;28;20069;-74
2023/04/14 10:59:52;;;;;;;3.72;0.30;;;;;;;;;;5009487;28;20073;-74
2023/04/14 11:02:25;;;;;;;5.22;0.77;;;;;;;;;;4991925;28;20121;-75
2023/04/14 11:04:57;;;;;;;0.25;0.20;;;;;;;;;;5009186;28;20421;-74
2023/04/14 11:07:22;;;;;;;3.03;0.30;;;;;;;;;;5010037;28;20054;-74
2023/04/14 11:09:48;;;;;;;3.08;0.60;;;;;;;;;;4995468;28;20030;-74
2023/04/14 11:12:23;;;;;;;0.43;0.28;;;;;;;;;;5012831;28;20096;-74
2023/04/14 11:14:49;;;;;;;2.20;0.60;;;;;;;;;;5012984;28;20076;-74
2023/04/14 11:17:19;;;;;;;0.13;0.13;;;;;;;;;;5012563;28;20037;-74
2023/04/14 11:19:44;;;;;;;2.75;0.35;;;;;;;;;;5012639;28;20137;-74
2023/04/14 11:22:10;;;;;;;0.88;0.43;;;;;;;;;;5012583;28;20105;-73
2023/04/14 11:24:36;;;;;;;2.65;0.50;;;;;;;;;;5012457;28;20034;-74
2023/04/14 11:27:01;;;;;;;0.90;0.40;;;;;;;;;;5012201;28;20113;-74
2023/04/14 11:29:26;;;;;;;1.80;0.88;;;;;;;;;;5012320;28;20482;-74
2023/04/14 11:32:02;;;;;;;2.15;0.52;;;;;;;;;;5013181;28;20033;-74
2023/04/14 11:34:28;;;;;;;0.68;0.43;;;;;;;;;;5015290;28;20482;-73
2023/04/14 11:36:54;;;;;;;4.18;0.55;;;;;;;;;;5016281;28;20041;-74
2023/04/14 11:39:20;;;;;;;1.85;0.60;;;;;;;;;;5016010;28;20033;-74
2023/04/14 11:41:46;;;;;;;0.93;0.57;;;;;;;;;;5012983;28;20440;-74
2023/04/14 11:44:15;;;;;;;1.23;1.13;;;;;;;;;;5013131;28;20018;-73
2023/04/14 11:46:40;;;;;;;0.98;0.98;;;;;;;;;;5012398;28;20041;-74
2023/04/14 11:49:06;;;;;;;0.22;0.22;;;;;;;;;;5012264;28;20595;-73
2023/04/14 11:51:32;;;;;;;0.10;0.10;;;;;;;;;;5012182;28;20030;-74
2023/04/14 11:54:01;;;;;;;0.10;0.10;;;;;;;;;;5012311;28;20028;-74
2023/04/14 11:56:27;;;;;;;0.20;0.20;;;;;;;;;;5012323;28;20092;-74
2023/04/14 11:59:02;;;;;;;2.00;0.63;;;;;;;;;;5012651;28;20144;-75
2023/04/14 12:01:28;;;;;;;0.22;0.22;;;;;;;;;;5012226;28;20037;-73
2023/04/14 12:03:54;;;;;;;0.10;0.10;;;;;;;;;;5011590;28;20018;-74
2023/04/14 12:06:19;;;;;;;0.77;0.47;;;;;;;;;;5012089;28;20042;-74
2023/04/14 12:08:50;;;;;;;0.15;0.15;;;;;;;;;;4994533;28;20088;-74
2023/04/14 12:11:16;;;;;;;0.10;0.10;;;;;;;;;;5011925;28;20474;-74
2023/04/14 12:13:42;;;;;;;0.82;0.40;;;;;;;;;;5012543;28;20087;-74
2023/04/14 12:16:13;;;;;;;0.20;0.20;;;;;;;;;;5011713;28;20147;-74
2023/04/14 12:18:39;;;;;;;5.57;1.23;;;;;;;;;;4993734;28;20030;-74
2023/04/14 12:21:05;;;;;;;0.10;0.10;;;;;;;;;;5011577;28;20026;-74
2023/04/14 12:23:36;;;;;;;4.05;0.65;;;;;;;;;;5011680;28;20084;-74
2023/04/14 12:26:02;;;;;;;2.45;0.20;;;;;;;;;;5011800;28;20034;-73
2023/04/14 12:28:28;;;;;;;5.22;1.17;;;;;;;;;;5011492;28;20363;-74
2023/04/14 12:31:01;;;;;;;2.83;1.00;;;;;;;;;;5011743;28;20408;-73
2023/04/14 12:33:27;;;;;;;2.95;0.73;;;;;;;;;;5011848;28;20037;-74
2023/04/14 12:35:53;;;;;;;2.00;0.63;;;;;;;;;;4994071;28;20041;-74
2023/04/14 12:38:24;;;;;;;15.57;1.75;;;;;;;;;;5011491;28;20065;-73
2023/04/14 12:40:49;;;;;;;5.75;1.20;;;;;;;;;;5011558;28;20152;-74
2023/04/14 12:43:15;;;;;;;6.63;0.55;;;;;;;;;;5011042;28;20444;-73
2023/04/14 12:45:41;;;;;;;6.40;1.02;;;;;;;;;;5011033;28;20117;-73
2023/04/14 12:48:07;;;;;;;0.20;0.20;;;;;;;;;;5011393;28;20034;-74
2023/04/14 12:50:33;;;;;;;3.50;0.55;;;;;;;;;;5011056;28;20038;-74
2023/04/14 12:52:59;;;;;;;7.70;1.00;;;;;;;;;;5011146;28;20049;-73
2023/04/14 12:55:26;;;;;;;2.53;0.85;;;;;;;;;;4993290;28;20034;-74
2023/04/14 12:57:55;;;;;;;2.33;0.60;;;;;;;;;;5011087;28;20037;-73
2023/04/14 13:00:21;;;;;;;6.53;0.75;;;;;;;;;;5010652;28;20041;-73
2023/04/14 13:02:46;;;;;;;3.55;0.65;;;;;;;;;;5010970;28;20080;-74
2023/04/14 13:05:12;;;;;;;4.30;0.75;;;;;;;;;;5010465;28;20477;-74
2023/04/14 13:07:37;;;;;;;8.40;0.85;;;;;;;;;;5010644;28;20048;-74
2023/04/14 13:10:03;;;;;;;6.30;1.00;;;;;;;;;;5010862;28;20038;-73
2023/04/14 13:12:28;;;;;;;4.28;1.20;;;;;;;;;;4992835;28;20034;-74
2023/04/14 13:14:54;;;;;;;1.13;0.40;;;;;;;;;;5010379;28;20029;-73
2023/04/14 13:17:19;;;;;;;2.88;0.75;;;;;;;;;;5010434;28;20034;-74
2023/04/14 13:19:45;;;;;;;1.10;0.40;;;;;;;;;;5010493;28;20045;-73
2023/04/14 13:22:11;;;;;;;3.58;1.13;;;;;;;;;;5011002;28;20120;-74
2023/04/14 13:24:36;;;;;;;0.98;0.57;;;;;;;;;;5009615;28;20038;-74
2023/04/14 13:27:02;;;;;;;11.50;2.88;;;;;;;;;;5009022;28;20034;-73
2023/04/14 13:29:27;;;;;;;5.28;1.08;;;;;;;;;;5010554;28;20021;-75
2023/04/14 13:31:53;;;;;;;2.88;0.80;;;;;;;;;;5009052;28;20386;-74
2023/04/14 13:34:18;;;;;;;1.65;0.85;;;;;;;;;;5010738;28;20030;-74
2023/04/14 13:36:44;;;;;;;0.10;0.10;;;;;;;;;;5010290;28;20103;-74
2023/04/14 13:39:09;;;;;;;2.30;1.17;;;;;;;;;;5009703;28;20384;-74
2023/04/14 13:41:35;;;;;;;6.65;1.23;;;;;;;;;;5005604;28;20446;-75
2023/04/14 13:44:00;;;;;;;8.75;2.97;;;;;;;;;;4992564;28;20033;-71
2023/04/14 13:46:26;;;;;;;3.50;1.00;;;;;;;;;;5008552;28;20111;-72
2023/04/14 13:48:52;;;;;;;8.95;1.23;;;;;;;;;;5010737;28;20033;-72
2023/04/14 13:51:18;;;;;;;8.15;1.50;;;;;;;;;;5010760;28;20080;-72
2023/04/14 13:53:44;;;;;;;6.28;1.15;;;;;;;;;;5010653;28;20034;-71
2023/04/14 13:56:10;;;;;;;9.77;1.40;;;;;;;;;;5009292;28;20117;-71
2023/04/14 13:58:37;;;;;;;6.38;0.90;;;;;;;;;;5009884;28;20153;-71
2023/04/14 14:01:09;;;;;;;0.73;0.43;;;;;;;;;;4991261;28;20132;-72
2023/04/14 14:03:36;;;;;;;9.88;1.48;;;;;;;;;;5010240;28;20056;-71
2023/04/14 14:06:02;;;;;;;7.00;1.10;;;;;;;;;;5010120;28;20370;-72
2023/04/14 14:08:29;;;;;;;3.88;1.00;;;;;;;;;;5009831;28;20041;-71
2023/04/14 14:10:54;;;;;;;0.88;0.28;;;;;;;;;;5010126;28;20124;-72
2023/04/14 14:13:20;;;;;;;0.10;0.10;;;;;;;;;;5009584;28;20025;-72
2023/04/14 14:15:46;;;;;;;0.50;0.43;;;;;;;;;;5009780;28;20401;-72
2023/04/14 14:18:13;;;;;;;1.02;0.43;;;;;;;;;;5009818;28;20021;-72
2023/04/14 14:20:38;;;;;;;1.92;1.00;;;;;;;;;;5009517;28;20398;-71
2023/04/14 14:23:04;;;;;;;9.63;3.53;;;;;;;;;;5009694;28;20049;-72
2023/04/14 14:25:29;;;;;;;2.60;1.40;;;;;;;;;;5009597;28;20117;-73
2023/04/14 14:27:55;;;;;;;0.10;0.10;;;;;;;;;;5009717;28;20038;-72
2023/04/14 14:30:21;;;;;;;5.82;1.67;;;;;;;;;;5009572;28;20078;-72
2023/04/14 14:32:46;;;;;;;5.20;1.42;;;;;;;;;;5009587;28;20123;-73
2023/04/14 14:35:11;;;;;;;1.00;0.20;;;;;;;;;;5009634;28;20109;-73
2023/04/14 14:37:37;;;;;;;1.55;0.13;;;;;;;;;;5009699;28;20393;-71
2023/04/14 14:40:02;;;;;;;6.55;1.33;;;;;;;;;;5009522;28;20119;-73
2023/04/14 14:42:28;;;;;;;3.10;0.45;;;;;;;;;;5010891;28;20366;-72
2023/04/14 14:44:54;;;;;;;0.93;0.55;;;;;;;;;;5013378;28;20030;-74